Time;durP1;ratioP1;P1;durP2;ratioP2;P2;SDS_P1;SDS_P2;PMS_P1;PMS_P2;Temp;Humidity;BMP_temperature;BMP_pressure;BME280_temperature;BME280_humidity;BME280_pressure;Samples;Min_cycle;Max_cycle;Signal;HPM_P1;HPM_P2
2022/07/01 00:01:22;;;;;;;3.70;2.60;;;;;;;18.45;100.00;100885.91;6244163;28;20049;-76
2022/07/01 00:04:26;;;;;;;4.82;2.72;;;;;;;18.49;100.00;100905.13;6247204;28;20057;-75
2022/07/01 00:07:28;;;;;;;5.30;3.38;;;;;;;18.47;100.00;100907.06;6247306;28;20191;-75
2022/07/01 00:10:29;;;;;;;5.35;3.00;;;;;;;18.44;100.00;100925.94;6247007;28;20041;-75
2022/07/01 00:13:33;;;;;;;3.85;2.83;;;;;;;18.40;100.00;100924.53;6246860;28;20053;-76
2022/07/01 00:16:34;;;;;;;2.63;2.10;;;;;;;18.35;100.00;100914.28;6246715;28;20049;-75
2022/07/01 00:19:35;;;;;;;6.38;2.38;;;;;;;18.22;100.00;100909.13;6247073;28;20140;-75
2022/07/01 00:22:37;;;;;;;5.05;2.40;;;;;;;18.15;100.00;100920.38;6246735;28;20045;-75
2022/07/01 00:25:38;;;;;;;2.55;2.15;;;;;;;18.13;100.00;100930.31;6246604;28;20058;-76
2022/07/01 00:28:41;;;;;;;2.42;1.90;;;;;;;18.04;100.00;100921.28;6236001;28;20049;-76
2022/07/01 00:31:42;;;;;;;3.47;2.30;;;;;;;17.99;100.00;100921.66;6223001;28;20045;-75
2022/07/01 00:34:44;;;;;;;4.10;1.85;;;;;;;17.92;100.00;100927.59;6222034;28;20054;-75
2022/07/01 00:37:45;;;;;;;5.15;2.58;;;;;;;17.82;100.00;100922.16;6230228;28;20052;-76
2022/07/01 00:40:52;;;;;;;3.33;2.33;;;;;;;17.65;100.00;100933.28;6246617;28;20053;-77
2022/07/01 00:43:55;;;;;;;5.32;3.10;;;;;;;17.55;100.00;100935.00;6246619;28;20053;-75
2022/07/01 00:46:59;;;;;;;4.00;2.80;;;;;;;17.55;100.00;100938.50;6246628;28;20497;-75
2022/07/01 00:50:00;;;;;;;4.75;2.90;;;;;;;17.54;100.00;100943.94;6246365;28;20058;-75
2022/07/01 00:53:02;;;;;;;3.92;2.85;;;;;;;17.42;100.00;100943.91;6246455;28;20049;-75
2022/07/01 00:56:04;;;;;;;4.35;3.13;;;;;;;17.28;100.00;100930.03;6246221;28;20053;-74
2022/07/01 00:59:06;;;;;;;5.97;3.35;;;;;;;17.16;100.00;100938.00;6245924;28;20049;-75
2022/07/01 01:02:09;;;;;;;6.43;4.25;;;;;;;17.09;100.00;100936.78;6245786;28;20133;-74
2022/07/01 01:05:10;;;;;;;5.25;3.75;;;;;;;17.09;100.00;100958.03;6246334;28;20049;-75
2022/07/01 01:08:12;;;;;;;6.75;4.32;;;;;;;17.04;100.00;100954.91;6246280;28;20497;-75
2022/07/01 01:11:14;;;;;;;7.80;4.72;;;;;;;17.16;100.00;100969.84;6246279;28;20056;-74
2022/07/01 01:14:17;;;;;;;7.30;4.20;;;;;;;17.14;100.00;100963.00;6246183;28;20079;-76
2022/07/01 01:17:20;;;;;;;4.95;4.20;;;;;;;17.02;100.00;100943.53;6246384;28;20049;-74
2022/07/01 01:20:23;;;;;;;7.70;4.03;;;;;;;17.03;100.00;100949.69;6246116;28;20684;-75
2022/07/01 01:23:26;;;;;;;8.25;5.00;;;;;;;17.09;100.00;100949.22;6245910;28;20057;-76
2022/07/01 01:26:28;;;;;;;8.35;4.97;;;;;;;16.94;100.00;100983.97;6246319;28;20052;-76
2022/07/01 01:29:29;;;;;;;6.13;4.32;;;;;;;16.85;100.00;100997.06;6235536;28;20465;-76
2022/07/01 01:32:30;;;;;;;4.88;3.63;;;;;;;16.72;100.00;101003.31;6222534;28;20050;-77
2022/07/01 01:35:32;;;;;;;6.95;3.85;;;;;;;16.69;100.00;101000.84;6222098;28;20056;-76
2022/07/01 01:38:36;;;;;;;5.70;3.60;;;;;;;16.55;100.00;101009.00;6222363;28;20061;-76
2022/07/01 01:41:37;;;;;;;5.25;3.70;;;;;;;16.42;100.00;101027.63;6226552;28;20053;-76
2022/07/01 01:44:39;;;;;;;5.25;3.88;;;;;;;16.36;100.00;101029.91;6226574;28;20050;-76
2022/07/01 01:47:40;;;;;;;5.72;4.00;;;;;;;16.31;100.00;101040.00;6226332;28;20224;-76
2022/07/01 01:50:42;;;;;;;5.60;3.58;;;;;;;16.26;100.00;101027.06;6226535;28;20053;-76
2022/07/01 01:53:44;;;;;;;4.95;3.38;;;;;;;16.12;100.00;101027.19;6226316;28;20425;-77
2022/07/01 01:56:45;;;;;;;6.40;3.40;;;;;;;16.02;100.00;101037.63;6249861;28;20053;-77
2022/07/01 01:59:47;;;;;;;5.95;3.08;;;;;;;16.04;100.00;101032.22;6250388;28;20524;-77
2022/07/01 02:02:48;;;;;;;4.95;3.10;;;;;;;16.04;100.00;101043.66;6251984;28;20045;-77
2022/07/01 02:05:50;;;;;;;4.20;2.75;;;;;;;16.02;100.00;101023.53;6252099;28;20566;-77
2022/07/01 02:08:52;;;;;;;5.28;3.53;;;;;;;16.02;100.00;101029.66;6252176;28;20119;-77
2022/07/01 02:11:54;;;;;;;6.40;2.75;;;;;;;15.91;100.00;101030.44;6252994;28;20046;-76
2022/07/01 02:14:55;;;;;;;2.65;2.22;;;;;;;15.94;100.00;101034.66;6251447;28;20126;-77
2022/07/01 02:17:57;;;;;;;3.70;2.50;;;;;;;15.92;100.00;101037.44;6247318;28;20069;-77
2022/07/01 02:20:58;;;;;;;2.88;2.17;;;;;;;15.92;100.00;101029.47;6236262;28;20657;-77
2022/07/01 02:24:01;;;;;;;4.38;2.40;;;;;;;15.85;100.00;101024.72;6244916;28;20056;-77
2022/07/01 02:27:02;;;;;;;3.85;2.25;;;;;;;15.81;100.00;101020.59;6251368;28;20670;-77
2022/07/01 02:30:05;;;;;;;1.90;1.73;;;;;;;15.77;100.00;101029.72;6250597;28;20053;-77
2022/07/01 02:33:07;;;;;;;4.03;2.03;;;;;;;15.59;100.00;101031.84;6248421;28;20052;-76
2022/07/01 02:36:09;;;;;;;3.30;2.40;;;;;;;15.61;100.00;101048.47;6250943;28;20494;-77
2022/07/01 02:39:11;;;;;;;2.33;2.03;;;;;;;15.45;100.00;101068.06;6250987;28;20049;-77
2022/07/01 02:42:26;;;;;;;4.40;2.05;;;;;;;15.55;100.00;101065.63;6250599;28;20432;-76
2022/07/01 02:45:27;;;;;;;4.50;2.03;;;;;;;15.47;100.00;101076.75;6249873;28;20049;-77
2022/07/01 02:48:28;;;;;;;2.50;2.17;;;;;;;15.47;100.00;101087.34;6250007;28;20055;-76
2022/07/01 02:51:30;;;;;;;6.00;2.35;;;;;;;15.43;100.00;101085.84;6249766;28;20053;-76
2022/07/01 02:54:32;;;;;;;8.18;2.08;;;;;;;15.36;100.00;101075.81;6249949;28;20741;-76
2022/07/01 02:57:34;;;;;;;4.03;2.67;;;;;;;15.30;100.00;101070.91;6250030;28;20057;-76
2022/07/01 03:00:36;;;;;;;4.47;2.42;;;;;;;15.28;100.00;101078.97;6230884;28;20061;-77
2022/07/01 03:03:37;;;;;;;3.10;2.28;;;;;;;15.34;100.00;101075.03;6225301;28;20282;-76
2022/07/01 03:06:40;;;;;;;3.13;2.28;;;;;;;15.33;100.00;101089.25;6225369;28;20441;-77
2022/07/01 03:09:43;;;;;;;2.75;2.10;;;;;;;15.36;100.00;101089.88;6225007;28;20062;-77
2022/07/01 03:12:45;;;;;;;2.88;2.13;;;;;;;15.27;100.00;101103.75;6224551;28;20090;-76
2022/07/01 03:15:46;;;;;;;3.90;1.77;;;;;;;15.23;100.00;101116.34;6225393;28;20065;-76
2022/07/01 03:18:48;;;;;;;3.08;1.80;;;;;;;15.20;100.00;101137.72;6224724;28;20060;-77
2022/07/01 03:21:49;;;;;;;5.28;1.38;;;;;;;15.22;100.00;101148.22;6224813;28;20072;-77
2022/07/01 03:24:53;;;;;;;5.82;1.35;;;;;;;15.04;100.00;101152.09;6224267;28;20054;-76
2022/07/01 03:27:54;;;;;;;1.45;1.35;;;;;;;14.98;100.00;101166.53;6224836;28;20057;-77
2022/07/01 03:30:55;;;;;;;5.30;1.23;;;;;;;14.92;100.00;101164.31;6224689;28;20050;-76
2022/07/01 03:33:57;;;;;;;2.10;1.23;;;;;;;14.93;100.00;101172.13;6224388;28;20054;-76
2022/07/01 03:36:58;;;;;;;1.73;0.98;;;;;;;14.90;100.00;101176.81;6225265;28;20457;-76
2022/07/01 03:40:00;;;;;;;1.92;0.90;;;;;;;14.86;100.00;101181.44;6224418;28;20050;-76
2022/07/01 03:43:02;;;;;;;0.70;0.63;;;;;;;14.81;100.00;101188.81;6223971;28;20120;-76
2022/07/01 03:46:03;;;;;;;1.85;0.80;;;;;;;14.71;100.00;101196.47;6224098;28;20054;-76
2022/07/01 03:49:05;;;;;;;0.70;0.63;;;;;;;14.71;100.00;101182.41;6224246;28;20053;-76
2022/07/01 03:52:07;;;;;;;0.70;0.70;;;;;;;14.74;100.00;101195.44;6223852;28;20046;-76
2022/07/01 03:55:09;;;;;;;2.35;1.00;;;;;;;14.65;100.00;101201.31;6233865;28;20052;-76
2022/07/01 03:58:10;;;;;;;0.60;0.60;;;;;;;14.65;100.00;101204.81;6248062;28;20045;-76
2022/07/01 04:01:12;;;;;;;2.83;0.40;;;;;;;14.63;100.00;101200.56;6236945;28;20065;-76
2022/07/01 04:04:13;;;;;;;0.65;0.65;;;;;;;14.67;100.00;101213.50;6223032;28;20060;-77
2022/07/01 04:07:14;;;;;;;0.68;0.57;;;;;;;14.65;100.00;101206.59;6223959;28;20046;-76
2022/07/01 04:10:18;;;;;;;0.68;0.60;;;;;;;14.62;100.00;101196.22;6223873;28;20050;-78
2022/07/01 04:13:19;;;;;;;2.20;0.90;;;;;;;14.62;100.00;101188.28;6239702;28;20045;-76
2022/07/01 04:16:21;;;;;;;1.35;0.73;;;;;;;14.64;100.00;101178.47;6248361;28;20551;-77
2022/07/01 04:19:22;;;;;;;0.85;0.70;;;;;;;14.68;100.00;101191.41;6248771;28;20054;-77
2022/07/01 04:22:33;;;;;;;1.00;0.90;;;;;;;14.75;100.00;101223.59;6247472;28;20405;-76
2022/07/01 04:25:35;;;;;;;;;;;;;;;14.83;100.00;101228.41;6330601;22;20053;-77
2022/07/01 04:28:36;;;;;;;4.15;1.20;;;;;;;14.90;100.00;101221.78;6247922;28;20388;-77
2022/07/01 04:31:39;;;;;;;2.13;1.50;;;;;;;14.85;100.00;101216.78;6271917;28;20048;-77
2022/07/01 04:34:40;;;;;;;1.83;1.52;;;;;;;14.81;100.00;101227.66;6260008;28;20050;-76
2022/07/01 04:37:42;;;;;;;2.58;1.50;;;;;;;14.75;100.00;101236.81;6246973;28;20402;-76
2022/07/01 04:41:58;;;;;;;3.47;1.52;;;;;;;14.76;100.00;101243.84;6246832;28;20057;-76
2022/07/01 04:44:06;;;;;;;3.13;1.58;;;;;;;14.70;100.00;101254.78;6246559;28;20179;-76
2022/07/01 04:47:08;;;;;;;3.78;1.55;;;;;;;14.69;100.00;101242.50;6246749;28;20052;-76
2022/07/01 04:50:10;;;;;;;2.38;1.67;;;;;;;14.65;100.00;101241.84;6250327;28;20064;-76
2022/07/01 04:53:13;;;;;;;2.67;1.80;;;;;;;14.69;100.00;101248.66;6258361;28;20641;-76
2022/07/01 04:56:15;;;;;;;2.03;1.42;;;;;;;14.67;100.00;101242.63;6248012;28;20053;-77
2022/07/01 04:59:17;;;;;;;3.58;1.70;;;;;;;14.68;100.00;101251.41;6246812;28;20049;-76
2022/07/01 05:02:18;;;;;;;7.28;3.42;;;;;;;14.66;100.00;101253.28;6246602;28;20046;-76
2022/07/01 05:05:19;;;;;;;2.88;1.55;;;;;;;14.69;100.00;101253.94;6246757;28;20049;-77
2022/07/01 05:08:21;;;;;;;4.38;2.03;;;;;;;14.78;100.00;101254.31;6246788;28;20144;-77
2022/07/01 05:11:23;;;;;;;6.25;1.80;;;;;;;14.81;100.00;101262.91;6246577;28;20050;-77
2022/07/01 05:14:25;;;;;;;4.25;1.85;;;;;;;14.67;100.00;101254.97;6248943;28;20057;-76
2022/07/01 05:21:55;;;;;;;2.67;1.70;;;;;;;14.65;100.00;101268.28;6251435;28;20428;-76
2022/07/01 05:24:07;;;;;;;2.90;1.70;;;;;;;14.72;100.00;101268.78;6266081;28;20057;-77
2022/07/01 05:27:11;;;;;;;3.63;2.05;;;;;;;14.73;100.00;101256.41;6275472;28;20056;-76
2022/07/01 05:30:13;;;;;;;2.50;1.92;;;;;;;14.65;100.00;101265.66;6275771;28;20537;-77
2022/07/01 05:33:14;;;;;;;4.47;2.33;;;;;;;14.63;100.00;101264.06;6275418;28;20516;-76
2022/07/01 05:36:16;;;;;;;5.30;2.88;;;;;;;14.65;100.00;101262.16;6275463;28;20056;-75
2022/07/01 05:39:17;;;;;;;4.38;2.67;;;;;;;14.69;100.00;101253.09;6275501;28;20493;-77
2022/07/01 05:42:20;;;;;;;7.45;3.25;;;;;;;14.76;100.00;101248.25;6275621;28;20136;-77
2022/07/01 05:45:21;;;;;;;3.78;2.38;;;;;;;14.84;100.00;101248.63;6275477;28;20048;-76
2022/07/01 05:48:23;;;;;;;4.05;2.70;;;;;;;14.85;100.00;101248.56;6276067;28;20049;-77
2022/07/01 05:51:24;;;;;;;3.70;1.90;;;;;;;14.87;100.00;101244.00;6275980;28;20538;-76
2022/07/01 05:54:25;;;;;;;5.35;3.35;;;;;;;14.93;100.00;101251.53;6256658;28;20049;-76
2022/07/01 05:57:28;;;;;;;5.25;3.22;;;;;;;14.87;100.00;101251.09;6251042;28;20053;-77
2022/07/01 06:00:29;;;;;;;8.20;3.63;;;;;;;14.78;100.00;101263.09;6250757;28;20509;-76
2022/07/01 06:03:31;;;;;;;4.50;3.22;;;;;;;14.76;100.00;101262.34;6250872;28;20053;-76
2022/07/01 06:06:32;;;;;;;6.55;3.42;;;;;;;14.74;100.00;101264.22;6250561;28;20496;-77
2022/07/01 06:09:33;;;;;;;4.35;3.00;;;;;;;14.82;100.00;101266.41;6250999;28;20049;-77
2022/07/01 06:12:36;;;;;;;6.63;3.67;;;;;;;14.78;100.00;101278.13;6250457;28;20489;-77
2022/07/01 06:15:38;;;;;;;7.45;3.17;;;;;;;14.77;100.00;101289.66;6250330;28;20053;-77
2022/07/01 06:18:39;;;;;;;10.45;3.88;;;;;;;14.82;100.00;101299.00;6250278;28;20060;-77
2022/07/01 06:21:40;;;;;;;5.32;3.47;;;;;;;14.96;100.00;101308.72;6249851;28;20521;-77
2022/07/01 06:24:41;;;;;;;8.88;4.85;;;;;;;14.98;100.00;101306.81;6250272;28;20057;-77
2022/07/01 06:27:45;;;;;;;8.05;4.43;;;;;;;14.95;100.00;101302.59;6249736;28;20054;-77
2022/07/01 06:30:46;;;;;;;7.53;4.07;;;;;;;14.98;100.00;101312.97;6249763;28;20089;-76
2022/07/01 06:33:48;;;;;;;6.13;3.85;;;;;;;14.99;100.00;101319.13;6249449;28;20045;-76
2022/07/01 06:36:49;;;;;;;6.45;4.78;;;;;;;15.02;100.00;101313.63;6249450;28;20417;-76
2022/07/01 06:39:50;;;;;;;6.40;3.90;;;;;;;14.98;100.00;101310.31;6249174;28;20049;-76
2022/07/01 06:42:55;;;;;;;8.18;4.53;;;;;;;14.92;100.00;101307.22;6249696;28;20041;-76
2022/07/01 06:45:56;;;;;;;8.65;4.07;;;;;;;14.95;100.00;101314.97;6249039;28;20139;-76
2022/07/01 06:48:58;;;;;;;7.00;4.13;;;;;;;14.98;100.00;101317.41;6248942;28;20505;-76
2022/07/01 06:52:00;;;;;;;7.85;4.68;;;;;;;14.94;100.00;101321.19;6249007;28;20045;-76
2022/07/01 06:55:01;;;;;;;6.82;4.38;;;;;;;14.81;100.00;101313.19;6249903;28;20045;-76
2022/07/01 06:58:05;;;;;;;7.05;4.45;;;;;;;14.78;100.00;101307.22;6249398;28;20060;-76
2022/07/01 07:01:07;;;;;;;8.00;5.05;;;;;;;14.83;100.00;101303.34;6249069;28;20060;-76
2022/07/01 07:04:08;;;;;;;8.43;4.47;;;;;;;14.84;100.00;101302.41;6248680;28;20054;-77
2022/07/01 07:07:10;;;;;;;8.32;4.75;;;;;;;14.82;100.00;101300.81;6248893;28;20057;-76
2022/07/01 07:10:11;;;;;;;7.68;5.38;;;;;;;14.83;100.00;101294.56;6248650;28;20048;-76
2022/07/01 07:13:14;;;;;;;9.32;5.38;;;;;;;14.81;100.00;101284.09;6249178;28;20379;-76
2022/07/01 07:16:15;;;;;;;9.48;5.20;;;;;;;14.86;100.00;101286.44;6248459;28;20060;-76
2022/07/01 07:19:16;;;;;;;9.68;5.55;;;;;;;14.90;100.00;101293.25;6248715;28;20060;-77
2022/07/01 07:22:18;;;;;;;10.13;5.10;;;;;;;14.91;100.00;101310.81;6248284;28;20665;-76
2022/07/01 07:25:19;;;;;;;9.55;5.60;;;;;;;14.88;100.00;101313.66;6261416;28;20056;-76
2022/07/01 07:28:22;;;;;;;9.82;5.05;;;;;;;14.91;100.00;101313.47;6272310;28;20492;-77
2022/07/01 07:31:23;;;;;;;7.10;4.55;;;;;;;14.94;100.00;101314.13;6273077;28;20056;-76
2022/07/01 07:34:24;;;;;;;9.98;5.70;;;;;;;14.95;100.00;101325.56;6272413;28;20053;-76
2022/07/01 07:37:27;;;;;;;9.13;5.60;;;;;;;14.93;100.00;101344.16;6272377;28;20045;-77
2022/07/01 07:40:28;;;;;;;9.50;5.70;;;;;;;14.88;100.00;101362.13;6272912;28;20091;-77
2022/07/01 07:43:31;;;;;;;9.70;5.55;;;;;;;14.81;100.00;101374.06;6272945;28;20049;-77
2022/07/01 07:46:32;;;;;;;10.05;5.80;;;;;;;14.85;100.00;101374.69;6272954;28;20052;-77
2022/07/01 07:49:33;;;;;;;8.40;5.03;;;;;;;14.81;100.00;101386.44;6273266;28;20060;-77
2022/07/01 07:52:35;;;;;;;10.73;6.18;;;;;;;14.78;100.00;101389.25;6272911;28;20053;-77
2022/07/01 07:55:36;;;;;;;10.48;6.45;;;;;;;14.71;100.00;101394.06;6249242;28;20052;-77
2022/07/01 07:58:41;;;;;;;12.80;6.43;;;;;;;14.73;100.00;101396.63;6248495;28;20516;-77
2022/07/01 08:01:43;;;;;;;11.73;7.10;;;;;;;14.60;100.00;101388.56;6248440;28;20071;-77
2022/07/01 08:04:44;;;;;;;14.73;7.28;;;;;;;14.51;100.00;101405.00;6261394;28;20496;-77
2022/07/01 08:07:45;;;;;;;12.18;6.80;;;;;;;14.52;100.00;101398.75;6254858;28;20052;-76
2022/07/01 08:10:47;;;;;;;13.38;6.78;;;;;;;14.51;100.00;101399.69;6272595;28;20045;-77
2022/07/01 08:13:49;;;;;;;14.13;7.00;;;;;;;14.54;100.00;101395.09;6252008;28;20041;-77
2022/07/01 08:16:51;;;;;;;13.30;7.60;;;;;;;14.54;100.00;101403.03;6248151;28;20053;-77
2022/07/01 08:19:52;;;;;;;9.98;5.95;;;;;;;14.45;100.00;101403.53;6248866;28;20053;-77
2022/07/01 08:22:53;;;;;;;12.65;6.38;;;;;;;14.50;100.00;101403.28;6271734;28;20072;-77
2022/07/01 08:25:55;;;;;;;13.25;6.85;;;;;;;14.47;100.00;101405.13;6266330;28;20048;-78
2022/07/01 08:28:57;;;;;;;16.30;8.02;;;;;;;14.46;100.00;101395.50;6272431;28;20052;-78
2022/07/01 08:31:59;;;;;;;11.75;6.85;;;;;;;14.47;100.00;101409.56;6273010;28;20056;-79
2022/07/01 08:35:00;;;;;;;13.05;7.43;;;;;;;14.53;100.00;101413.66;6272397;28;20421;-79
2022/07/01 08:38:02;;;;;;;13.55;6.55;;;;;;;14.57;100.00;101413.41;6273315;28;20045;-79
2022/07/01 08:41:04;;;;;;;11.95;6.53;;;;;;;14.60;100.00;101422.97;6273236;28;20194;-79
2022/07/01 08:44:07;;;;;;;12.50;7.20;;;;;;;14.59;100.00;101429.19;6270762;28;20049;-79
2022/07/01 08:47:12;;;;;;;14.48;7.25;;;;;;;14.59;100.00;101426.56;6268494;28;20049;-78
2022/07/01 08:50:14;;;;;;;11.45;6.30;;;;;;;14.67;100.00;101435.75;6261790;28;20052;-79
2022/07/01 08:53:15;;;;;;;18.50;8.02;;;;;;;14.69;100.00;101446.22;6261399;28;20048;-79
2022/07/01 08:59:37;;;;;;;13.50;7.30;;;;;;;14.65;100.00;101442.91;6259509;28;20420;-79
2022/07/01 09:02:56;;;;;;;14.07;7.80;;;;;;;14.75;100.00;101429.97;6259644;28;20045;-78
2022/07/01 09:05:57;;;;;;;18.25;8.65;;;;;;;14.80;100.00;101433.19;6262129;28;20052;-79
2022/07/01 09:09:11;;;;;;;14.32;7.15;;;;;;;14.87;100.00;101436.34;6273195;28;20056;-79
2022/07/01 09:12:13;;;;;;;17.08;8.55;;;;;;;14.90;100.00;101447.59;6274265;28;20052;-79
2022/07/01 09:15:29;;;;;;;16.15;8.32;;;;;;;14.96;100.00;101452.50;6260470;28;20465;-79
2022/07/01 09:18:30;;;;;;;13.40;7.40;;;;;;;14.98;100.00;101457.69;6276719;28;20053;-80
2022/07/01 09:21:32;;;;;;;16.08;8.00;;;;;;;14.96;100.00;101441.91;6276725;28;20056;-79
2022/07/01 09:24:36;;;;;;;21.80;9.95;;;;;;;15.04;100.00;101435.31;6276826;28;20115;-78
2022/07/01 09:27:37;;;;;;;15.80;8.45;;;;;;;15.13;100.00;101450.63;6277282;28;20045;-79
2022/07/01 09:30:41;;;;;;;18.63;8.38;;;;;;;15.11;100.00;101452.50;6276632;28;20053;-78
2022/07/01 09:33:43;;;;;;;14.20;8.27;;;;;;;15.10;100.00;101449.03;6269806;28;20052;-79
2022/07/01 09:36:52;;;;;;;19.80;8.40;;;;;;;15.09;100.00;101454.41;6276794;28;20056;-78
2022/07/01 09:39:55;;;;;;;16.45;8.10;;;;;;;14.97;100.00;101459.50;6276721;28;20135;-78
2022/07/01 09:42:57;;;;;;;16.10;7.40;;;;;;;14.91;100.00;101465.16;6276733;28;20052;-78
2022/07/01 09:46:01;;;;;;;18.98;8.55;;;;;;;14.92;100.00;101468.66;6264258;28;20493;-78
2022/07/01 09:49:03;;;;;;;19.27;9.20;;;;;;;14.91;100.00;101482.84;6275997;28;20045;-73
2022/07/01 09:52:05;;;;;;;18.60;9.40;;;;;;;14.91;100.00;101482.84;6268029;28;20060;-78
2022/07/01 09:55:09;;;;;;;20.60;8.82;;;;;;;14.95;100.00;101479.91;6274236;28;20665;-77
2022/07/01 09:58:11;;;;;;;17.70;9.05;;;;;;;15.03;100.00;101486.53;6271371;28;20060;-77
2022/07/01 10:01:15;;;;;;;18.02;9.73;;;;;;;15.03;100.00;101481.25;6274274;28;20060;-78
2022/07/01 10:04:18;;;;;;;17.70;9.48;;;;;;;15.04;100.00;101473.22;6275583;28;20183;-78
2022/07/01 10:07:35;;;;;;;17.73;8.48;;;;;;;15.10;100.00;101488.72;6276417;28;20055;-77
2022/07/01 10:10:45;;;;;;;21.38;9.35;;;;;;;15.15;100.00;101483.16;6275846;28;20057;-78
2022/07/01 10:13:47;;;;;;;13.73;7.47;;;;;;;15.18;100.00;101483.81;6275739;28;20049;-78
2022/07/01 10:16:50;;;;;;;17.02;7.95;;;;;;;15.22;100.00;101482.69;6260332;28;20060;-78
2022/07/01 10:19:55;;;;;;;18.88;8.75;;;;;;;15.22;100.00;101492.44;6250676;28;20045;-78
2022/07/01 10:23:05;;;;;;;17.20;7.38;;;;;;;15.22;100.00;101481.84;6250978;28;20052;-78
2022/07/01 10:26:07;;;;;;;;;;;;;;;15.29;100.00;101487.59;6245684;22;20160;-78
2022/07/01 10:29:27;;;;;;;11.60;7.18;;;;;;;15.39;100.00;101475.50;6226057;28;19985;-77
2022/07/01 10:32:30;;;;;;;9.95;6.20;;;;;;;15.54;100.00;101479.00;6224605;28;20509;-78
2022/07/01 10:35:38;;;;;;;14.25;7.30;;;;;;;15.69;100.00;101470.13;6225999;28;20050;-78
2022/07/01 10:39:10;;;;;;;14.43;8.35;;;;;;;15.82;100.00;101472.84;6226456;28;20050;-77
2022/07/01 10:42:12;;;;;;;17.92;8.13;;;;;;;15.93;100.00;101476.50;6226317;28;20081;-78
2022/07/01 10:45:13;;;;;;;12.35;7.22;;;;;;;16.04;100.00;101464.38;6226152;28;20516;-78
2022/07/01 10:48:24;;;;;;;14.68;7.93;;;;;;;16.14;100.00;101466.31;6225903;28;20045;-77
2022/07/01 10:51:43;;;;;;;14.13;7.53;;;;;;;16.06;100.00;101457.16;6225013;28;20501;-77
2022/07/01 10:54:49;;;;;;;14.02;7.65;;;;;;;16.05;100.00;101456.31;6225105;28;20508;-78
2022/07/01 10:57:55;;;;;;;14.85;7.68;;;;;;;16.08;100.00;101465.84;6225112;28;20182;-77
2022/07/01 11:00:57;;;;;;;12.63;7.65;;;;;;;16.11;100.00;101453.25;6224802;28;20054;-78
2022/07/01 11:04:00;;;;;;;18.48;9.60;;;;;;;16.14;100.00;101453.06;6223985;28;20490;-78
2022/07/01 11:07:01;;;;;;;12.60;7.30;;;;;;;16.14;100.00;101468.13;6225346;28;20057;-78
2022/07/01 11:10:06;;;;;;;11.95;6.22;;;;;;;16.17;100.00;101470.59;6226459;28;20520;-78
2022/07/01 11:13:08;;;;;;;11.38;5.85;;;;;;;16.20;100.00;101473.03;6225517;28;20042;-78
2022/07/01 11:16:09;;;;;;;10.80;6.28;;;;;;;16.18;100.00;101464.31;6225293;28;20053;-78
2022/07/01 11:19:12;;;;;;;11.90;5.82;;;;;;;16.30;100.00;101475.91;6225747;28;20050;-79
2022/07/01 11:22:18;;;;;;;9.43;5.45;;;;;;;16.36;100.00;101480.84;6222137;28;20073;-79
2022/07/01 11:25:21;;;;;;;8.90;5.10;;;;;;;16.42;100.00;101472.47;6225119;28;20434;-79
2022/07/01 11:28:23;;;;;;;9.05;5.18;;;;;;;16.52;100.00;101473.53;6226407;28;20058;-79
2022/07/01 11:31:31;;;;;;;15.50;5.30;;;;;;;16.62;100.00;101458.72;6226605;28;20557;-78
2022/07/01 11:34:37;;;;;;;6.50;4.53;;;;;;;16.79;100.00;101464.72;6227108;28;20046;-79
2022/07/01 11:40:58;;;;;;;11.05;4.43;;;;;;;16.83;100.00;101460.91;6226053;28;20045;-78
2022/07/01 11:44:04;;;;;;;5.03;3.53;;;;;;;16.76;100.00;101467.56;6224386;28;20053;-79
2022/07/01 11:47:08;;;;;;;5.32;3.58;;;;;;;16.68;100.00;101471.56;6224785;28;20054;-79
2022/07/01 11:50:14;;;;;;;7.95;4.35;;;;;;;16.73;100.00;101481.91;6225735;28;20060;-78
2022/07/01 11:53:16;;;;;;;7.32;3.60;;;;;;;16.77;100.00;101488.72;6224899;28;20544;-78
2022/07/01 11:56:18;;;;;;;4.75;2.97;;;;;;;16.82;100.00;101483.09;6224833;28;20682;-78
2022/07/01 11:59:21;;;;;;;6.38;3.33;;;;;;;16.80;100.00;101487.66;6223992;28;20050;-79
2022/07/01 12:02:24;;;;;;;5.40;3.50;;;;;;;16.80;100.00;101493.81;6223431;28;20054;-78
2022/07/01 12:05:27;;;;;;;5.05;3.15;;;;;;;16.82;100.00;101499.88;6223709;28;20046;-79
2022/07/01 12:08:29;;;;;;;7.28;3.83;;;;;;;16.90;100.00;101500.22;6224227;28;20060;-79
2022/07/01 12:11:30;;;;;;;6.82;3.83;;;;;;;16.96;100.00;101501.59;6221675;28;20494;-78
2022/07/01 12:14:34;;;;;;;4.75;2.95;;;;;;;16.99;100.00;101499.59;6218930;28;20045;-79
2022/07/01 12:17:36;;;;;;;5.50;3.10;;;;;;;16.96;100.00;101494.47;6223021;28;20425;-73
2022/07/01 12:20:38;;;;;;;5.00;3.03;;;;;;;16.93;100.00;101496.47;6223270;28;20049;-79
2022/07/01 12:23:40;;;;;;;4.93;2.80;;;;;;;16.91;100.00;101501.91;6222144;28;20070;-79
2022/07/01 12:26:50;;;;;;;3.88;2.58;;;;;;;16.88;100.00;101487.97;6221542;28;20050;-79
2022/07/01 12:29:54;;;;;;;3.30;1.90;;;;;;;16.92;100.00;101486.81;6223012;28;20403;-79
2022/07/01 12:32:55;;;;;;;3.30;2.30;;;;;;;16.92;100.00;101495.63;6212155;28;20053;-78
2022/07/01 12:35:58;;;;;;;4.25;2.67;;;;;;;16.95;100.00;101499.91;6222300;28;20516;-79
2022/07/01 12:39:06;;;;;;;2.60;1.65;;;;;;;16.95;100.00;101506.06;6222712;28;20046;-78
2022/07/01 12:42:07;;;;;;;3.22;1.70;;;;;;;16.98;100.00;101515.59;6223134;28;20056;-79
2022/07/01 12:45:11;;;;;;;2.85;1.90;;;;;;;17.04;100.00;101511.72;6222312;28;20045;-78
2022/07/01 12:48:12;;;;;;;3.10;2.05;;;;;;;17.05;100.00;101503.63;6223149;28;20112;-78
2022/07/01 12:51:16;;;;;;;3.10;2.28;;;;;;;17.12;100.00;101515.53;6222837;28;20054;-79
2022/07/01 12:54:31;;;;;;;4.03;1.75;;;;;;;17.16;100.00;101514.34;6222993;28;20052;-78
2022/07/01 12:57:33;;;;;;;2.15;1.65;;;;;;;17.22;100.00;101513.09;6215510;28;20047;-79
2022/07/01 13:00:36;;;;;;;4.60;2.05;;;;;;;17.25;100.00;101504.91;6222240;28;20056;-79
2022/07/01 13:03:37;;;;;;;2.53;1.80;;;;;;;17.39;100.00;101511.91;6223084;28;20053;-79
2022/07/01 13:06:40;;;;;;;2.47;1.83;;;;;;;17.47;100.00;101509.56;6222669;28;20053;-79
2022/07/01 13:09:41;;;;;;;3.45;1.85;;;;;;;17.61;97.43;101504.13;6223204;28;20061;-79
2022/07/01 13:12:44;;;;;;;7.72;3.00;;;;;;;17.65;98.22;101510.94;6222919;28;20050;-79
2022/07/01 13:15:46;;;;;;;2.83;2.10;;;;;;;17.75;92.33;101503.19;6222445;28;20045;-79
2022/07/01 13:18:47;;;;;;;4.63;2.08;;;;;;;17.81;91.48;101492.13;6223108;28;20057;-79
2022/07/01 13:21:50;;;;;;;2.53;1.88;;;;;;;17.81;91.72;101500.09;6222707;28;20493;-79
2022/07/01 13:24:51;;;;;;;2.35;2.05;;;;;;;17.75;91.70;101504.03;6223228;28;20053;-79
2022/07/01 13:27:52;;;;;;;4.35;1.85;;;;;;;17.70;91.61;101497.31;6222817;28;20399;-79
2022/07/01 13:30:54;;;;;;;3.50;1.88;;;;;;;17.59;93.02;101495.44;6222133;28;20521;-79
2022/07/01 13:33:55;;;;;;;2.85;2.03;;;;;;;17.58;94.84;101500.84;6222832;28;20061;-79
2022/07/01 13:36:58;;;;;;;2.65;1.92;;;;;;;17.67;93.20;101501.06;6227170;28;20050;-79
2022/07/01 13:39:59;;;;;;;3.75;2.05;;;;;;;17.56;92.92;101506.25;6227286;28;20046;-79
2022/07/01 13:43:00;;;;;;;1.85;1.63;;;;;;;17.46;93.34;101508.72;6227093;28;20390;-79
2022/07/01 13:46:03;;;;;;;4.03;1.48;;;;;;;17.46;93.35;101510.53;6226642;28;20494;-79
2022/07/01 13:49:05;;;;;;;3.63;1.90;;;;;;;17.46;92.51;101507.88;6226551;28;20056;-79
2022/07/01 13:52:07;;;;;;;2.65;1.80;;;;;;;17.48;94.73;101504.13;6226788;28;20050;-79
2022/07/01 13:55:09;;;;;;;3.30;1.40;;;;;;;17.56;91.98;101511.56;6226614;28;20056;-79
2022/07/01 13:58:10;;;;;;;2.00;1.55;;;;;;;17.63;93.94;101512.00;6226570;28;20445;-79
2022/07/01 14:01:12;;;;;;;1.80;1.52;;;;;;;17.80;92.46;101509.00;6226586;28;20050;-78
2022/07/01 14:04:13;;;;;;;2.05;1.25;;;;;;;18.35;91.65;101512.13;6226583;28;20049;-79
2022/07/01 14:07:16;;;;;;;4.60;1.58;;;;;;;19.00;86.16;101527.69;6226631;28;20061;-76
2022/07/01 14:10:18;;;;;;;3.38;1.70;;;;;;;19.48;76.42;101525.72;6225471;28;20073;-76